createdAt,value
2019-03-19T00:01:49.151Z,14.73
2019-03-19T00:04:20.222Z,14.43
2019-03-19T00:06:51.265Z,15.30
2019-03-19T00:09:22.477Z,14.55
2019-03-19T00:11:53.630Z,15.88
2019-03-19T00:14:24.702Z,16.12
2019-03-19T00:16:55.837Z,15.98
2019-03-19T00:19:26.983Z,15.72
2019-03-19T00:21:58.192Z,16.50
2019-03-19T00:24:29.306Z,18.57
2019-03-19T00:27:00.491Z,17.98
2019-03-19T00:29:31.539Z,17.92
2019-03-19T00:32:02.609Z,17.67
2019-03-19T00:34:34.698Z,17.52
2019-03-19T00:37:05.765Z,19.67
2019-03-19T00:39:36.765Z,20.50
2019-03-19T00:42:07.898Z,19.27
2019-03-19T00:44:38.931Z,20.23
2019-03-19T00:47:10.050Z,20.75
2019-03-19T00:49:41.135Z,22.42
2019-03-19T00:52:12.159Z,24.02
2019-03-19T00:54:43.246Z,23.50
2019-03-19T00:57:14.428Z,25.27
2019-03-19T00:59:45.432Z,25.72
2019-03-19T01:02:16.593Z,25.32
2019-03-19T01:04:47.610Z,26.57
2019-03-19T01:07:18.610Z,26.82
2019-03-19T01:09:49.752Z,28.07
2019-03-19T01:12:21.439Z,27.60
2019-03-19T01:14:52.469Z,30.52
2019-03-19T01:17:23.667Z,30.35
2019-03-19T01:19:54.777Z,30.65
2019-03-19T01:22:25.874Z,30.75
2019-03-19T01:24:56.963Z,29.02
2019-03-19T01:27:28.153Z,30.43
2019-03-19T01:29:59.373Z,30.35
2019-03-19T01:32:30.362Z,29.15
2019-03-19T01:35:01.407Z,28.90
2019-03-19T01:37:32.452Z,27.95
2019-03-19T01:40:05.071Z,30.35
2019-03-19T01:42:36.074Z,28.10
2019-03-19T01:45:11.963Z,29.12
2019-03-19T01:47:42.999Z,29.85
2019-03-19T01:50:15.047Z,30.95
2019-03-19T01:52:46.150Z,31.42
2019-03-19T01:55:17.254Z,28.57
2019-03-19T01:57:48.243Z,30.92
2019-03-19T02:00:20.360Z,30.40
2019-03-19T02:02:51.373Z,29.75
2019-03-19T02:05:23.565Z,29.80
2019-03-19T02:07:54.554Z,31.37
2019-03-19T02:10:25.558Z,30.00
2019-03-19T02:12:56.757Z,31.57
2019-03-19T02:15:27.785Z,31.93
2019-03-19T02:17:58.832Z,31.68
2019-03-19T02:20:29.908Z,32.53
2019-03-19T02:23:00.937Z,32.20
2019-03-19T02:25:32.052Z,30.77
2019-03-19T02:28:03.459Z,31.15
2019-03-19T02:30:34.496Z,34.53
2019-03-19T02:33:05.540Z,31.37
2019-03-19T02:35:36.549Z,34.05
2019-03-19T02:38:07.608Z,35.60
2019-03-19T02:40:38.661Z,34.53
2019-03-19T02:43:09.827Z,37.55
2019-03-19T02:45:40.823Z,39.60
2019-03-19T02:48:11.860Z,42.50
2019-03-19T02:50:42.930Z,41.95
2019-03-19T02:53:14.587Z,40.17
2019-03-19T02:55:45.577Z,38.13
2019-03-19T02:58:16.641Z,38.78
2019-03-19T03:00:47.745Z,37.33
2019-03-19T03:03:18.964Z,31.90
2019-03-19T03:05:50.072Z,31.65
2019-03-19T03:08:21.105Z,31.62
2019-03-19T03:10:52.250Z,30.20
2019-03-19T03:13:23.397Z,31.73
2019-03-19T03:15:54.415Z,31.37
2019-03-19T03:18:25.417Z,32.58
2019-03-19T03:20:56.515Z,33.85
2019-03-19T03:23:27.485Z,32.63
2019-03-19T03:25:58.561Z,32.38
2019-03-19T03:28:29.630Z,33.28
2019-03-19T03:31:00.630Z,34.78
2019-03-19T03:33:31.664Z,35.17
2019-03-19T03:36:02.803Z,35.03
2019-03-19T03:38:33.780Z,34.85
2019-03-19T03:41:04.834Z,34.85
2019-03-19T03:43:35.829Z,34.98
2019-03-19T03:46:06.888Z,35.48
2019-03-19T03:48:38.021Z,35.10
2019-03-19T03:51:09.022Z,40.45
2019-03-19T03:53:40.164Z,35.40
2019-03-19T03:56:11.180Z,37.05
2019-03-19T03:58:42.232Z,36.85
2019-03-19T04:01:14.290Z,36.73
2019-03-19T04:03:45.290Z,40.67
2019-03-19T04:06:16.278Z,41.23
2019-03-19T04:08:47.335Z,39.45
2019-03-19T04:11:18.320Z,39.03
2019-03-19T04:13:49.378Z,37.38
2019-03-19T04:16:20.461Z,36.55
2019-03-19T04:18:51.590Z,35.73
2019-03-19T04:21:22.546Z,35.38
2019-03-19T04:23:53.521Z,35.15
2019-03-19T04:26:24.608Z,33.30
2019-03-19T04:28:55.607Z,34.48
2019-03-19T04:31:26.711Z,36.00
2019-03-19T04:33:58.769Z,35.48
2019-03-19T04:36:29.761Z,36.80
2019-03-19T04:39:00.842Z,36.95
2019-03-19T04:41:33.536Z,36.70
2019-03-19T04:44:04.635Z,36.48
2019-03-19T04:46:35.814Z,33.73
2019-03-19T04:49:07.025Z,35.13
2019-03-19T04:51:38.068Z,34.30
2019-03-19T04:54:09.147Z,32.85
2019-03-19T04:56:40.130Z,32.65
2019-03-19T04:59:11.182Z,33.13
2019-03-19T05:01:42.273Z,32.88
2019-03-19T05:04:13.257Z,33.13
2019-03-19T05:06:44.261Z,34.75
2019-03-19T05:09:15.222Z,35.03
2019-03-19T05:11:46.288Z,35.85
2019-03-19T05:14:17.258Z,35.20
2019-03-19T05:16:48.235Z,35.52
2019-03-19T05:19:19.743Z,36.40
2019-03-19T05:21:50.882Z,35.92
2019-03-19T05:24:21.868Z,36.05
2019-03-19T05:26:52.879Z,36.42
2019-03-19T05:29:24.024Z,36.08
2019-03-19T05:31:55.018Z,35.08
2019-03-19T05:34:35.655Z,36.48
2019-03-19T05:37:06.884Z,36.85
2019-03-19T05:39:37.876Z,35.65
2019-03-19T05:42:08.940Z,35.20
2019-03-19T05:44:40.024Z,37.45
2019-03-19T05:47:11.097Z,39.58
2019-03-19T05:49:42.085Z,44.65
2019-03-19T05:52:13.148Z,42.75
2019-03-19T05:54:44.211Z,47.27
2019-03-19T05:57:15.322Z,43.35
2019-03-19T05:59:46.348Z,47.62
2019-03-19T06:02:17.487Z,49.90
2019-03-19T06:04:48.624Z,49.15
2019-03-19T06:07:19.647Z,50.40
2019-03-19T06:09:50.715Z,52.98
2019-03-19T06:12:21.723Z,54.50
2019-03-19T06:14:52.861Z,51.42
2019-03-19T06:17:23.883Z,49.23
2019-03-19T06:19:54.891Z,49.45
2019-03-19T06:22:25.914Z,49.63
2019-03-19T06:24:56.977Z,46.83
2019-03-19T06:27:28.218Z,47.85
2019-03-19T06:29:59.485Z,47.13
2019-03-19T06:32:30.616Z,48.60
2019-03-19T06:35:01.877Z,47.62
2019-03-19T06:37:32.861Z,49.23
2019-03-19T06:40:06.518Z,51.40
2019-03-19T06:42:37.603Z,46.83
2019-03-19T06:45:11.437Z,46.95
2019-03-19T06:47:42.787Z,45.98
2019-03-19T06:50:18.986Z,47.17
2019-03-19T06:52:50.128Z,50.50
2019-03-19T06:55:21.391Z,45.95
2019-03-19T06:57:52.472Z,44.15
2019-03-19T07:00:24.575Z,39.38
2019-03-19T07:02:55.554Z,34.80
2019-03-19T07:05:26.761Z,33.15
2019-03-19T07:07:59.544Z,30.45
2019-03-19T07:10:30.628Z,29.20
2019-03-19T07:13:01.876Z,27.55
2019-03-19T07:15:32.982Z,29.82
2019-03-19T07:18:04.005Z,32.63
2019-03-19T07:20:35.033Z,38.73
2019-03-19T07:23:06.095Z,43.20
2019-03-19T07:25:37.454Z,41.77
2019-03-19T07:28:08.557Z,42.13
2019-03-19T07:30:40.963Z,37.95
2019-03-19T07:33:12.624Z,38.23
2019-03-19T07:35:47.018Z,35.10
2019-03-19T07:38:18.070Z,33.88
2019-03-19T07:40:49.133Z,34.95
2019-03-19T07:43:20.135Z,34.38
2019-03-19T07:45:51.113Z,49.00
2019-03-19T07:48:22.213Z,44.30
2019-03-19T07:50:53.392Z,35.05
2019-03-19T07:53:24.375Z,34.63
2019-03-19T07:55:55.564Z,41.10
2019-03-19T07:58:35.840Z,34.53
2019-03-19T08:00:59.583Z,32.03
2019-03-19T08:03:30.588Z,30.82
2019-03-19T08:06:01.576Z,28.62
2019-03-19T08:08:32.617Z,28.83
2019-03-19T08:11:03.835Z,30.43
2019-03-19T08:13:34.824Z,27.58
2019-03-19T08:16:05.924Z,27.70
2019-03-19T08:18:36.988Z,28.83
2019-03-19T08:21:08.052Z,25.43
2019-03-19T08:23:39.156Z,24.45
2019-03-19T08:26:10.160Z,23.20
2019-03-19T08:28:41.238Z,23.60
2019-03-19T08:31:12.293Z,26.48
2019-03-19T08:33:43.603Z,25.97
2019-03-19T08:36:14.747Z,23.45
2019-03-19T08:38:45.785Z,22.07
2019-03-19T08:41:16.861Z,24.15
2019-03-19T08:43:47.819Z,23.22
2019-03-19T08:46:18.933Z,23.22
2019-03-19T08:48:50.016Z,21.60
2019-03-19T08:51:21.280Z,23.77
2019-03-19T08:53:52.311Z,23.05
2019-03-19T08:56:23.372Z,21.17
2019-03-19T08:58:54.446Z,19.35
2019-03-19T09:01:25.570Z,19.62
2019-03-19T09:03:56.585Z,20.70
2019-03-19T09:06:27.776Z,21.62
2019-03-19T09:08:59.131Z,21.10
2019-03-19T09:11:31.231Z,21.00
2019-03-19T09:14:02.297Z,22.58
2019-03-19T09:16:33.269Z,19.30
2019-03-19T09:19:04.940Z,17.32
2019-03-19T09:21:35.971Z,15.60
2019-03-19T09:24:07.054Z,14.33
2019-03-19T09:26:38.045Z,14.23
2019-03-19T09:29:16.882Z,16.57
2019-03-19T09:31:41.820Z,16.70
2019-03-19T09:34:12.969Z,15.43
2019-03-19T09:36:43.981Z,14.35
2019-03-19T09:39:15.050Z,15.08
2019-03-19T09:41:46.204Z,14.28
2019-03-19T09:44:17.191Z,15.90
2019-03-19T09:46:48.380Z,13.78
2019-03-19T09:49:21.143Z,13.85
2019-03-19T09:51:52.354Z,14.33
2019-03-19T09:54:23.393Z,13.43
2019-03-19T09:56:54.856Z,13.38
2019-03-19T09:59:27.314Z,13.45
2019-03-19T10:01:58.620Z,13.00
2019-03-19T10:04:29.606Z,12.18
2019-03-19T10:07:06.024Z,11.28
2019-03-19T10:09:33.553Z,10.50
2019-03-19T10:12:04.523Z,12.15
2019-03-19T10:14:35.582Z,12.85
2019-03-19T10:17:07.345Z,13.62
2019-03-19T10:19:38.511Z,12.18
2019-03-19T10:22:09.573Z,12.28
2019-03-19T10:24:40.622Z,9.83
2019-03-19T10:27:11.698Z,9.15
2019-03-19T10:29:42.891Z,7.62
2019-03-19T10:32:14.063Z,7.53
2019-03-19T10:34:45.188Z,6.70
2019-03-19T10:37:16.234Z,8.35
2019-03-19T10:39:47.253Z,6.97
2019-03-19T10:42:18.221Z,6.12
2019-03-19T10:44:49.275Z,6.80
2019-03-19T10:47:20.591Z,6.10
2019-03-19T10:49:51.670Z,5.70
2019-03-19T10:52:22.920Z,5.67
2019-03-19T10:54:53.919Z,5.42
2019-03-19T10:57:25.435Z,5.42
2019-03-19T10:59:59.750Z,5.20
2019-03-19T11:02:30.940Z,5.15
2019-03-19T11:05:02.490Z,3.77
2019-03-19T11:07:33.462Z,3.50
2019-03-19T11:10:07.352Z,4.58
2019-03-19T11:12:38.508Z,4.47
2019-03-19T11:15:17.504Z,4.40
2019-03-19T11:17:48.611Z,4.30
2019-03-19T11:20:20.179Z,3.87
2019-03-19T11:22:51.351Z,4.15
2019-03-19T11:25:26.858Z,4.28
2019-03-19T11:27:57.967Z,3.90
2019-03-19T11:30:30.065Z,4.37
2019-03-19T11:33:01.235Z,3.83
2019-03-19T11:35:32.552Z,4.53
2019-03-19T11:38:04.313Z,3.70
2019-03-19T11:40:35.229Z,2.75
2019-03-19T11:43:06.211Z,2.75
2019-03-19T11:45:37.225Z,2.95
2019-03-19T11:48:08.219Z,3.12
2019-03-19T11:50:39.204Z,3.92
2019-03-19T11:53:10.246Z,4.05
2019-03-19T11:55:41.202Z,4.95
2019-03-19T11:58:12.202Z,5.28
2019-03-19T12:00:47.911Z,4.75
2019-03-19T12:03:19.075Z,4.35
2019-03-19T12:05:50.157Z,3.52
2019-03-19T12:08:21.220Z,3.95
2019-03-19T12:10:52.242Z,4.50
2019-03-19T12:13:23.436Z,4.05
2019-03-19T12:15:54.508Z,5.58
2019-03-19T12:18:25.602Z,4.60
2019-03-19T12:20:56.649Z,4.95
2019-03-19T12:23:27.799Z,5.12
2019-03-19T12:25:58.974Z,4.15
2019-03-19T12:28:39.291Z,3.58
2019-03-19T12:31:02.763Z,3.33
2019-03-19T12:33:40.760Z,4.20
2019-03-19T12:36:06.664Z,3.55
2019-03-19T12:38:37.884Z,3.20
2019-03-19T12:41:08.843Z,3.52
2019-03-19T12:43:39.747Z,4.45
2019-03-19T12:46:10.639Z,3.67
2019-03-19T12:48:41.602Z,3.80
2019-03-19T12:51:12.599Z,5.17
2019-03-19T12:53:43.679Z,4.47
2019-03-19T12:56:14.782Z,3.75
2019-03-19T12:58:45.855Z,4.40
2019-03-19T13:01:16.964Z,5.30
2019-03-19T13:03:48.166Z,6.25
2019-03-19T13:06:19.134Z,4.40
2019-03-19T13:08:50.127Z,4.10
2019-03-19T13:11:21.032Z,5.50
2019-03-19T13:13:52.232Z,5.87
2019-03-19T13:16:23.314Z,4.03
2019-03-19T13:18:54.372Z,4.72
2019-03-19T13:21:25.227Z,4.97
2019-03-19T13:23:56.390Z,5.85
2019-03-19T13:26:27.503Z,4.87
2019-03-19T13:28:58.463Z,4.47
2019-03-19T13:31:29.339Z,4.65
2019-03-19T13:34:00.535Z,7.10
2019-03-19T13:36:31.559Z,5.28
2019-03-19T13:39:02.795Z,5.50
2019-03-19T13:41:34.721Z,5.00
2019-03-19T13:44:05.917Z,5.60
2019-03-19T13:46:36.931Z,5.62
2019-03-19T13:49:08.440Z,4.85
2019-03-19T13:51:39.447Z,5.05
2019-03-19T13:54:10.711Z,4.60
2019-03-19T13:56:41.730Z,6.35
2019-03-19T13:59:12.757Z,5.08
2019-03-19T14:01:43.804Z,4.37
2019-03-19T14:04:15.065Z,3.98
2019-03-19T14:06:45.925Z,4.83
2019-03-19T14:09:16.926Z,5.47
2019-03-19T14:11:49.104Z,5.72
2019-03-19T14:14:20.191Z,5.65
2019-03-19T14:16:51.163Z,5.72
2019-03-19T14:19:22.282Z,5.62
2019-03-19T14:21:53.371Z,5.35
2019-03-19T14:24:24.470Z,5.50
2019-03-19T14:26:55.547Z,5.40
2019-03-19T14:29:26.646Z,8.35
2019-03-19T14:31:57.818Z,5.87
2019-03-19T14:34:28.920Z,4.87
2019-03-19T14:36:59.866Z,4.20
2019-03-19T14:39:31.086Z,4.62
2019-03-19T14:42:02.130Z,6.28
2019-03-19T14:44:33.203Z,8.43
2019-03-19T14:47:04.310Z,6.37
2019-03-19T14:49:46.077Z,6.75
2019-03-19T14:52:08.509Z,5.22
2019-03-19T14:54:40.323Z,5.47
2019-03-19T14:57:11.361Z,5.70
2019-03-19T14:59:42.767Z,6.35
2019-03-19T15:02:15.192Z,6.30
2019-03-19T15:04:46.313Z,6.20
2019-03-19T15:07:17.979Z,8.15
2019-03-19T15:09:49.010Z,7.45
2019-03-19T15:12:20.142Z,7.12
2019-03-19T15:14:52.216Z,7.40
2019-03-19T15:17:23.320Z,8.80
2019-03-19T15:19:54.463Z,9.80
2019-03-19T15:22:32.447Z,8.93
2019-03-19T15:24:58.558Z,8.88
2019-03-19T15:27:30.726Z,10.95
2019-03-19T15:30:03.042Z,9.65
2019-03-19T15:32:34.830Z,10.18
2019-03-19T15:35:08.988Z,9.93
2019-03-19T15:37:41.015Z,10.18
2019-03-19T15:40:16.411Z,11.48
2019-03-19T15:42:47.506Z,29.45
2019-03-19T15:45:26.552Z,52.43
2019-03-19T15:47:57.563Z,32.33
2019-03-19T15:50:28.696Z,40.35
2019-03-19T15:52:59.749Z,30.97
2019-03-19T15:55:30.938Z,137.82
2019-03-19T15:58:01.928Z,87.15
2019-03-19T16:00:33.418Z,60.28
2019-03-19T16:03:04.447Z,55.40
2019-03-19T16:05:35.681Z,31.35
2019-03-19T16:08:06.830Z,29.80
2019-03-19T16:10:38.928Z,27.27
2019-03-19T16:13:10.045Z,27.42
2019-03-19T16:15:41.183Z,29.37
2019-03-19T16:18:12.246Z,26.02
2019-03-19T16:20:43.417Z,28.00
2019-03-19T16:23:14.496Z,39.08
2019-03-19T16:25:45.553Z,40.50
2019-03-19T16:28:16.776Z,29.70
2019-03-19T16:30:47.746Z,26.33
2019-03-19T16:33:19.556Z,24.87
2019-03-19T16:35:50.760Z,21.82
2019-03-19T16:38:21.784Z,25.17
2019-03-19T16:40:52.927Z,30.48
2019-03-19T16:43:24.009Z,23.30
2019-03-19T16:45:55.112Z,45.05
2019-03-19T16:48:26.571Z,43.73
2019-03-19T16:50:57.610Z,48.70
2019-03-19T16:53:28.793Z,36.60
2019-03-19T16:56:00.340Z,37.48
2019-03-19T16:58:31.552Z,27.42
2019-03-19T17:01:02.608Z,40.65
2019-03-19T17:03:33.884Z,42.90
2019-03-19T17:06:04.982Z,32.90
2019-03-19T17:08:36.162Z,36.63
2019-03-19T17:11:07.354Z,47.93
2019-03-19T17:13:39.619Z,32.15
2019-03-19T17:16:10.775Z,26.65
2019-03-19T17:18:41.790Z,30.90
2019-03-19T17:21:12.782Z,34.30
2019-03-19T17:23:43.946Z,28.45
2019-03-19T17:26:14.988Z,23.98
2019-03-19T17:28:46.087Z,23.67
2019-03-19T17:31:17.199Z,24.92
2019-03-19T17:33:48.191Z,24.85
2019-03-19T17:36:19.363Z,24.72
2019-03-19T17:38:50.591Z,25.25
2019-03-19T17:41:21.804Z,26.17
2019-03-19T17:43:52.897Z,26.45
2019-03-19T17:46:23.995Z,28.10
2019-03-19T17:48:55.024Z,45.70
2019-03-19T17:51:26.073Z,40.80
2019-03-19T17:53:57.230Z,36.55
2019-03-19T17:56:46.078Z,32.98
2019-03-19T17:59:17.156Z,31.35
2019-03-19T18:01:48.186Z,29.35
2019-03-19T18:04:19.427Z,29.52
2019-03-19T18:06:50.505Z,28.25
2019-03-19T18:09:21.627Z,35.50
2019-03-19T18:11:52.659Z,38.48
2019-03-19T18:14:23.816Z,56.08
2019-03-19T18:16:54.865Z,46.60
2019-03-19T18:19:26.019Z,38.45
2019-03-19T18:21:57.006Z,38.95
2019-03-19T18:24:28.095Z,31.68
2019-03-19T18:26:59.238Z,36.73
2019-03-19T18:29:30.303Z,34.65
2019-03-19T18:32:01.374Z,35.08
2019-03-19T18:34:32.982Z,33.38
2019-03-19T18:37:04.074Z,33.73
2019-03-19T18:39:35.696Z,38.20
2019-03-19T18:42:06.968Z,35.60
2019-03-19T18:44:38.030Z,42.15
2019-03-19T18:47:12.155Z,39.25
2019-03-19T18:49:43.937Z,41.13
2019-03-19T18:52:16.350Z,45.40
2019-03-19T18:54:47.645Z,42.38
2019-03-19T18:57:18.964Z,39.65
2019-03-19T18:59:50.180Z,39.75
2019-03-19T19:02:21.427Z,42.33
2019-03-19T19:04:52.712Z,40.10
2019-03-19T19:07:24.112Z,46.75
2019-03-19T19:09:55.239Z,52.43
2019-03-19T19:12:26.357Z,45.30
2019-03-19T19:14:57.533Z,44.50
2019-03-19T19:17:28.673Z,42.25
2019-03-19T19:19:59.779Z,41.05
2019-03-19T19:22:30.919Z,53.23
2019-03-19T19:25:02.366Z,46.60
2019-03-19T19:27:33.836Z,45.95
2019-03-19T19:30:11.073Z,44.15
2019-03-19T19:32:42.089Z,41.48
2019-03-19T19:35:13.356Z,40.03
2019-03-19T19:37:44.605Z,39.00
2019-03-19T19:40:17.271Z,40.23
2019-03-19T19:42:48.472Z,43.52
2019-03-19T19:45:20.063Z,45.45
2019-03-19T19:47:51.163Z,38.30
2019-03-19T19:50:23.327Z,35.03
2019-03-19T19:52:54.494Z,39.63
2019-03-19T19:55:25.886Z,53.25
2019-03-19T19:57:57.073Z,40.25
2019-03-19T20:00:28.165Z,39.33
2019-03-19T20:02:59.161Z,42.65
2019-03-19T20:05:30.408Z,44.18
2019-03-19T20:08:01.542Z,44.83
2019-03-19T20:10:32.706Z,45.35
2019-03-19T20:13:04.211Z,39.70
2019-03-19T20:15:35.481Z,42.38
2019-03-19T20:18:08.194Z,41.77
2019-03-19T20:20:39.436Z,42.23
2019-03-19T20:23:52.507Z,41.90
2019-03-19T20:26:40.319Z,42.58
2019-03-19T20:29:11.502Z,45.33
2019-03-19T20:31:42.698Z,43.00
2019-03-19T20:34:13.866Z,37.33
2019-03-19T20:36:45.585Z,37.15
2019-03-19T20:39:55.775Z,37.23
2019-03-19T20:42:26.878Z,36.75
2019-03-19T20:44:58.130Z,34.18
2019-03-19T20:47:29.279Z,32.95
2019-03-19T20:50:00.402Z,31.77
2019-03-19T20:52:31.728Z,33.65
2019-03-19T20:55:02.893Z,34.35
2019-03-19T20:57:34.083Z,34.88
2019-03-19T21:00:08.474Z,32.17
2019-03-19T21:02:39.717Z,31.27
2019-03-19T21:05:10.937Z,34.05
2019-03-19T21:07:42.142Z,31.05
2019-03-19T21:10:24.410Z,32.25
2019-03-19T21:12:55.658Z,33.78
2019-03-19T21:15:29.091Z,34.45
2019-03-19T21:18:00.457Z,28.73
2019-03-19T21:20:31.549Z,25.52
2019-03-19T21:23:02.584Z,27.07
2019-03-19T21:25:33.719Z,23.77
2019-03-19T21:28:13.596Z,25.23
2019-03-19T21:30:37.828Z,27.90
2019-03-19T21:33:09.007Z,24.95
2019-03-19T21:35:40.149Z,24.35
2019-03-19T21:38:11.185Z,24.43
2019-03-19T21:40:42.326Z,22.93
2019-03-19T21:43:13.473Z,21.95
2019-03-19T21:45:44.837Z,22.52
2019-03-19T21:48:15.971Z,26.90
2019-03-19T21:50:47.110Z,27.73
2019-03-19T21:53:18.167Z,26.23
2019-03-19T21:55:49.201Z,23.20
2019-03-19T21:58:20.168Z,21.73
2019-03-19T22:00:51.275Z,22.25
2019-03-19T22:03:22.419Z,21.12
2019-03-19T22:05:53.565Z,21.50
2019-03-19T22:08:24.709Z,21.17
2019-03-19T22:10:56.867Z,20.43
2019-03-19T22:13:28.029Z,20.92
2019-03-19T22:15:59.009Z,20.85
2019-03-19T22:18:30.103Z,19.90
2019-03-19T22:21:01.186Z,19.77
2019-03-19T22:23:32.281Z,19.98
2019-03-19T22:26:04.457Z,19.95
2019-03-19T22:28:35.617Z,20.40
2019-03-19T22:31:06.633Z,20.65
2019-03-19T22:33:37.789Z,20.43
2019-03-19T22:36:09.141Z,21.00
2019-03-19T22:38:40.412Z,21.75
2019-03-19T22:41:11.731Z,22.02
2019-03-19T22:43:43.023Z,21.30
2019-03-19T22:46:21.642Z,22.17
2019-03-19T22:48:47.323Z,21.77
2019-03-19T22:51:18.659Z,21.60
2019-03-19T22:53:49.958Z,21.48
2019-03-19T22:56:21.259Z,21.60
2019-03-19T22:58:52.547Z,21.90
2019-03-19T23:01:23.863Z,22.50
2019-03-19T23:03:55.113Z,22.60
2019-03-19T23:06:26.362Z,22.07
2019-03-19T23:08:57.702Z,22.87
2019-03-19T23:11:29.041Z,23.18
2019-03-19T23:14:00.395Z,23.52
2019-03-19T23:16:31.645Z,24.37
2019-03-19T23:19:03.002Z,24.75
2019-03-19T23:21:34.301Z,25.35
2019-03-19T23:24:05.554Z,25.17
2019-03-19T23:26:36.823Z,25.82
2019-03-19T23:29:07.880Z,25.17
2019-03-19T23:31:39.011Z,25.70
2019-03-19T23:34:10.057Z,25.72
2019-03-19T23:36:41.203Z,25.52
2019-03-19T23:39:12.355Z,25.97
2019-03-19T23:41:43.481Z,24.82
2019-03-19T23:44:14.529Z,25.25
2019-03-19T23:46:45.577Z,26.87
2019-03-19T23:49:16.721Z,26.73
2019-03-19T23:51:47.867Z,26.93
2019-03-19T23:54:19.074Z,28.60
2019-03-19T23:56:50.259Z,29.15
2019-03-19T23:59:21.385Z,27.55
